sensor_id;sensor_type;location;lat;lon;timestamp;pressure;altitude;pressure_sealevel;temperature
45034;BMP280;30771;47.988;-4.186;2022-08-18T06:01:19;100592.91;;;17.42
45034;BMP280;30771;47.988;-4.186;2022-08-18T06:03:47;100600.16;;;17.46
45034;BMP280;30771;47.988;-4.186;2022-08-18T06:06:16;100605.56;;;17.51
45034;BMP280;30771;47.988;-4.186;2022-08-18T06:08:42;100613.28;;;17.53
45034;BMP280;30771;47.988;-4.186;2022-08-18T06:11:09;100605.06;;;17.54
45034;BMP280;30771;47.988;-4.186;2022-08-18T06:13:36;100611.19;;;17.55
45034;BMP280;30771;47.988;-4.186;2022-08-18T06:18:55;100615.97;;;17.53
45034;BMP280;30771;47.988;-4.186;2022-08-18T06:34:24;100631.94;;;17.53
45034;BMP280;30771;47.988;-4.186;2022-08-18T06:37:26;100641.31;;;17.55
45034;BMP280;30771;47.988;-4.186;2022-08-18T06:39:45;100632.59;;;17.60
45034;BMP280;30771;47.988;-4.186;2022-08-18T06:42:10;100637.75;;;17.66
45034;BMP280;30771;47.988;-4.186;2022-08-18T06:44:40;100639.16;;;17.74
45034;BMP280;30771;47.988;-4.186;2022-08-18T06:47:15;100644.84;;;17.82
45034;BMP280;30771;47.988;-4.186;2022-08-18T06:49:53;100647.13;;;17.90
45034;BMP280;30771;47.988;-4.186;2022-08-18T06:54:53;100670.47;;;18.05
45034;BMP280;30771;47.988;-4.186;2022-08-18T07:00:00;100674.38;;;18.14
45034;BMP280;30771;47.988;-4.186;2022-08-18T07:02:30;100677.84;;;18.19
45034;BMP280;30771;47.988;-4.186;2022-08-18T07:05:03;100677.31;;;18.17
45034;BMP280;30771;47.988;-4.186;2022-08-18T07:07:32;100684.34;;;18.23
45034;BMP280;30771;47.988;-4.186;2022-08-18T07:09:58;100683.09;;;18.31
45034;BMP280;30771;47.988;-4.186;2022-08-18T07:12:25;100686.84;;;18.35
45034;BMP280;30771;47.988;-4.186;2022-08-18T07:14:52;100682.09;;;18.37
45034;BMP280;30771;47.988;-4.186;2022-08-18T07:17:19;100695.19;;;18.44
45034;BMP280;30771;47.988;-4.186;2022-08-18T07:19:49;100695.00;;;18.45
45034;BMP280;30771;47.988;-4.186;2022-08-18T07:22:18;100694.41;;;18.43
45034;BMP280;30771;47.988;-4.186;2022-08-18T07:24:44;100696.78;;;18.40
45034;BMP280;30771;47.988;-4.186;2022-08-18T07:29:39;100689.41;;;18.25
45034;BMP280;30771;47.988;-4.186;2022-08-18T07:32:22;100696.72;;;18.34
45034;BMP280;30771;47.988;-4.186;2022-08-18T07:34:49;100689.44;;;18.52
45034;BMP280;30771;47.988;-4.186;2022-08-18T07:37:17;100694.69;;;18.68
45034;BMP280;30771;47.988;-4.186;2022-08-18T07:39:46;100694.31;;;18.81
45034;BMP280;30771;47.988;-4.186;2022-08-18T07:42:16;100701.34;;;18.92
45034;BMP280;30771;47.988;-4.186;2022-08-18T07:47:30;100707.47;;;19.19
45034;BMP280;30771;47.988;-4.186;2022-08-18T07:49:52;100719.59;;;19.37
45034;BMP280;30771;47.988;-4.186;2022-08-18T07:52:18;100719.59;;;19.37
45034;BMP280;30771;47.988;-4.186;2022-08-18T08:02:30;100734.72;;;19.58
45034;BMP280;30771;47.988;-4.186;2022-08-18T08:07:57;100724.47;;;19.81
45034;BMP280;30771;47.988;-4.186;2022-08-18T08:10:27;100744.25;;;19.85
45034;BMP280;30771;47.988;-4.186;2022-08-18T08:13:12;100735.47;;;19.85
45034;BMP280;30771;47.988;-4.186;2022-08-18T08:15:45;100728.25;;;19.90
45034;BMP280;30771;47.988;-4.186;2022-08-18T08:18:17;100741.66;;;19.96
45034;BMP280;30771;47.988;-4.186;2022-08-18T08:20:50;100732.63;;;20.07
45034;BMP280;30771;47.988;-4.186;2022-08-18T08:23:33;100733.47;;;20.22
45034;BMP280;30771;47.988;-4.186;2022-08-18T08:28:40;100736.84;;;20.69
45034;BMP280;30771;47.988;-4.186;2022-08-18T08:31:12;100740.59;;;20.63
45034;BMP280;30771;47.988;-4.186;2022-08-18T08:33:53;100746.47;;;20.50
45034;BMP280;30771;47.988;-4.186;2022-08-18T08:36:30;100740.53;;;20.43
45034;BMP280;30771;47.988;-4.186;2022-08-18T08:39:01;100730.84;;;20.32
45034;BMP280;30771;47.988;-4.186;2022-08-18T08:41:31;100729.53;;;20.35
45034;BMP280;30771;47.988;-4.186;2022-08-18T08:44:02;100727.44;;;20.37
45034;BMP280;30771;47.988;-4.186;2022-08-18T08:46:30;100733.56;;;20.47
45034;BMP280;30771;47.988;-4.186;2022-08-18T08:49:00;100739.75;;;20.48
45034;BMP280;30771;47.988;-4.186;2022-08-18T08:53:59;100737.91;;;20.53
45034;BMP280;30771;47.988;-4.186;2022-08-18T08:56:28;100746.75;;;20.69
45034;BMP280;30771;47.988;-4.186;2022-08-18T08:59:13;100746.78;;;20.74
45034;BMP280;30771;47.988;-4.186;2022-08-18T09:01:48;100737.94;;;20.88
45034;BMP280;30771;47.988;-4.186;2022-08-18T09:24:40;100755.63;;;21.69
45034;BMP280;30771;47.988;-4.186;2022-08-18T09:37:11;100762.63;;;21.20
45034;BMP280;30771;47.988;-4.186;2022-08-18T09:39:48;100763.19;;;21.17
45034;BMP280;30771;47.988;-4.186;2022-08-18T09:42:26;100753.78;;;21.05
45034;BMP280;30771;47.988;-4.186;2022-08-18T09:49:46;100768.53;;;21.07
45034;BMP280;30771;47.988;-4.186;2022-08-18T09:52:45;100770.66;;;21.15
45034;BMP280;30771;47.988;-4.186;2022-08-18T09:57:40;100785.66;;;21.51
45034;BMP280;30771;47.988;-4.186;2022-08-18T10:07:56;100777.34;;;21.78
45034;BMP280;30771;47.988;-4.186;2022-08-18T10:10:40;100783.97;;;22.01
45034;BMP280;30771;47.988;-4.186;2022-08-18T10:20:59;100791.75;;;21.87
45034;BMP280;30771;47.988;-4.186;2022-08-18T10:28:54;100786.53;;;22.26
45034;BMP280;30771;47.988;-4.186;2022-08-18T10:31:20;100781.22;;;22.16
45034;BMP280;30771;47.988;-4.186;2022-08-18T10:36:45;100761.50;;;22.45
45034;BMP280;30771;47.988;-4.186;2022-08-18T10:39:21;100772.16;;;22.60
45034;BMP280;30771;47.988;-4.186;2022-08-18T10:42:02;100777.03;;;22.58
45034;BMP280;30771;47.988;-4.186;2022-08-18T10:44:27;100788.28;;;22.55
45034;BMP280;30771;47.988;-4.186;2022-08-18T10:46:54;100765.06;;;22.74
45034;BMP280;30771;47.988;-4.186;2022-08-18T10:49:22;100773.72;;;22.71
45034;BMP280;30771;47.988;-4.186;2022-08-18T10:52:04;100777.50;;;22.65
45034;BMP280;30771;47.988;-4.186;2022-08-18T10:57:15;100763.53;;;22.68
45034;BMP280;30771;47.988;-4.186;2022-08-18T10:59:44;100763.19;;;22.80
45034;BMP280;30771;47.988;-4.186;2022-08-18T11:02:33;100759.00;;;22.97
45034;BMP280;30771;47.988;-4.186;2022-08-18T11:05:06;100758.91;;;23.12
45034;BMP280;30771;47.988;-4.186;2022-08-18T11:07:32;100777.16;;;23.15
45034;BMP280;30771;47.988;-4.186;2022-08-18T11:09:58;100772.94;;;23.04
45034;BMP280;30771;47.988;-4.186;2022-08-18T11:12:43;100772.56;;;22.82
45034;BMP280;30771;47.988;-4.186;2022-08-18T11:15:16;100766.31;;;22.92
45034;BMP280;30771;47.988;-4.186;2022-08-18T11:20:28;100758.09;;;23.40
45034;BMP280;30771;47.988;-4.186;2022-08-18T11:22:54;100782.59;;;23.39
45034;BMP280;30771;47.988;-4.186;2022-08-18T11:25:34;100777.16;;;23.15
45034;BMP280;30771;47.988;-4.186;2022-08-18T11:27:59;100769.88;;;23.16
45034;BMP280;30771;47.988;-4.186;2022-08-18T11:30:26;100767.28;;;23.39
45034;BMP280;30771;47.988;-4.186;2022-08-18T11:32:52;100762.94;;;23.67
45034;BMP280;30771;47.988;-4.186;2022-08-18T11:35:18;100771.06;;;23.86
45034;BMP280;30771;47.988;-4.186;2022-08-18T11:37:45;100772.97;;;23.85
45034;BMP280;30771;47.988;-4.186;2022-08-18T11:42:46;100769.13;;;23.91
45034;BMP280;30771;47.988;-4.186;2022-08-18T11:45:14;100772.75;;;24.00
45034;BMP280;30771;47.988;-4.186;2022-08-18T11:47:57;100778.53;;;24.12
45034;BMP280;30771;47.988;-4.186;2022-08-18T11:50:27;100785.28;;;23.91
45034;BMP280;30771;47.988;-4.186;2022-08-18T11:52:52;100781.31;;;23.83
45034;BMP280;30771;47.988;-4.186;2022-08-18T11:55:19;100770.72;;;23.92
45034;BMP280;30771;47.988;-4.186;2022-08-18T11:57:54;100764.72;;;24.19
45034;BMP280;30771;47.988;-4.186;2022-08-18T12:05:47;100781.41;;;24.58
45034;BMP280;30771;47.988;-4.186;2022-08-18T12:08:20;100785.63;;;24.45
45034;BMP280;30771;47.988;-4.186;2022-08-18T12:10:45;100781.16;;;24.36
45034;BMP280;30771;47.988;-4.186;2022-08-18T12:13:10;100788.31;;;24.45
45034;BMP280;30771;47.988;-4.186;2022-08-18T12:15:44;100790.44;;;24.48
45034;BMP280;30771;47.988;-4.186;2022-08-18T12:18:10;100784.16;;;24.53
45034;BMP280;30771;47.988;-4.186;2022-08-18T12:20:35;100798.94;;;24.37
45034;BMP280;30771;47.988;-4.186;2022-08-18T12:23:00;100789.38;;;24.26
45034;BMP280;30771;47.988;-4.186;2022-08-18T12:25:25;100784.31;;;24.24
45034;BMP280;30771;47.988;-4.186;2022-08-18T12:27:50;100783.22;;;24.44
45034;BMP280;30771;47.988;-4.186;2022-08-18T12:30:16;100782.28;;;24.53
45034;BMP280;30771;47.988;-4.186;2022-08-18T12:32:41;100789.78;;;24.56
45034;BMP280;30771;47.988;-4.186;2022-08-18T12:35:07;100788.41;;;24.59
45034;BMP280;30771;47.988;-4.186;2022-08-18T12:37:32;100781.50;;;24.71
45034;BMP280;30771;47.988;-4.186;2022-08-18T12:39:58;100791.16;;;24.72
45034;BMP280;30771;47.988;-4.186;2022-08-18T12:42:24;100782.28;;;24.72
45034;BMP280;30771;47.988;-4.186;2022-08-18T12:44:50;100780.38;;;24.72
45034;BMP280;30771;47.988;-4.186;2022-08-18T12:47:22;100771.34;;;24.82
45034;BMP280;30771;47.988;-4.186;2022-08-18T12:49:48;100774.56;;;24.84
45034;BMP280;30771;47.988;-4.186;2022-08-18T12:52:13;100777.16;;;24.70
45034;BMP280;30771;47.988;-4.186;2022-08-18T12:54:39;100783.84;;;24.59
45034;BMP280;30771;47.988;-4.186;2022-08-18T12:57:05;100794.28;;;24.42
45034;BMP280;30771;47.988;-4.186;2022-08-18T12:59:32;100785.19;;;24.20
45034;BMP280;30771;47.988;-4.186;2022-08-18T13:01:57;100784.31;;;24.24
45034;BMP280;30771;47.988;-4.186;2022-08-18T13:04:22;100783.81;;;23.99
45034;BMP280;30771;47.988;-4.186;2022-08-18T13:06:49;100787.47;;;23.84
45034;BMP280;30771;47.988;-4.186;2022-08-18T13:09:15;100787.66;;;23.93
45034;BMP280;30771;47.988;-4.186;2022-08-18T13:14:46;100786.44;;;24.27
45034;BMP280;30771;47.988;-4.186;2022-08-18T13:17:12;100788.91;;;24.42
45034;BMP280;30771;47.988;-4.186;2022-08-18T13:19:37;100779.00;;;24.38
45034;BMP280;30771;47.988;-4.186;2022-08-18T13:22:02;100784.84;;;24.45
45034;BMP280;30771;47.988;-4.186;2022-08-18T13:24:27;100780.53;;;24.44
45034;BMP280;30771;47.988;-4.186;2022-08-18T13:26:53;100771.34;;;24.63
45034;BMP280;30771;47.988;-4.186;2022-08-18T13:29:18;100770.97;;;24.88
45034;BMP280;30771;47.988;-4.186;2022-08-18T13:31:43;100775.38;;;24.98
45034;BMP280;30771;47.988;-4.186;2022-08-18T13:34:09;100770.13;;;25.06
45034;BMP280;30771;47.988;-4.186;2022-08-18T13:36:34;100781.13;;;25.10
45034;BMP280;30771;47.988;-4.186;2022-08-18T13:38:59;100774.34;;;25.26
45034;BMP280;30771;47.988;-4.186;2022-08-18T13:41:24;100780.50;;;25.45
45034;BMP280;30771;47.988;-4.186;2022-08-18T13:43:50;100782.69;;;25.43
45034;BMP280;30771;47.988;-4.186;2022-08-18T13:46:16;100783.56;;;25.38
45034;BMP280;30771;47.988;-4.186;2022-08-18T13:48:42;100795.94;;;25.26
45034;BMP280;30771;47.988;-4.186;2022-08-18T13:51:08;100794.91;;;25.08
45034;BMP280;30771;47.988;-4.186;2022-08-18T13:53:34;100803.50;;;24.92
45034;BMP280;30771;47.988;-4.186;2022-08-18T13:56:00;100795.38;;;24.78
45034;BMP280;30771;47.988;-4.186;2022-08-18T13:58:28;100789.34;;;24.68
45034;BMP280;30771;47.988;-4.186;2022-08-18T14:01:04;100785.63;;;24.64
45034;BMP280;30771;47.988;-4.186;2022-08-18T14:03:29;100788.91;;;24.61
45034;BMP280;30771;47.988;-4.186;2022-08-18T14:05:55;100795.25;;;24.51
45034;BMP280;30771;47.988;-4.186;2022-08-18T14:08:20;100789.19;;;24.41
45034;BMP280;30771;47.988;-4.186;2022-08-18T14:10:49;100789.91;;;24.46
45034;BMP280;30771;47.988;-4.186;2022-08-18T14:13:15;100791.94;;;24.36
45034;BMP280;30771;47.988;-4.186;2022-08-18T14:15:41;100787.25;;;24.28
45034;BMP280;30771;47.988;-4.186;2022-08-18T14:18:06;100797.94;;;24.33
45034;BMP280;30771;47.988;-4.186;2022-08-18T14:20:31;100795.75;;;24.35
45034;BMP280;30771;47.988;-4.186;2022-08-18T14:22:57;100787.25;;;24.28
45034;BMP280;30771;47.988;-4.186;2022-08-18T14:25:23;100794.50;;;24.27
45034;BMP280;30771;47.988;-4.186;2022-08-18T14:27:48;100800.38;;;24.29
45034;BMP280;30771;47.988;-4.186;2022-08-18T14:30:13;100801.50;;;24.05
45034;BMP280;30771;47.988;-4.186;2022-08-18T14:32:38;100808.38;;;23.92
45034;BMP280;30771;47.988;-4.186;2022-08-18T14:35:10;100800.16;;;23.83
45034;BMP280;30771;47.988;-4.186;2022-08-18T14:37:35;100799.66;;;23.76
45034;BMP280;30771;47.988;-4.186;2022-08-18T14:40:00;100806.84;;;23.86
45034;BMP280;30771;47.988;-4.186;2022-08-18T14:42:26;100801.09;;;23.69
45034;BMP280;30771;47.988;-4.186;2022-08-18T14:44:51;100807.66;;;23.58
45034;BMP280;30771;47.988;-4.186;2022-08-18T14:47:16;100807.91;;;23.61
45034;BMP280;30771;47.988;-4.186;2022-08-18T14:49:41;100800.00;;;23.70
45034;BMP280;30771;47.988;-4.186;2022-08-18T14:52:06;100799.19;;;23.69
45034;BMP280;30771;47.988;-4.186;2022-08-18T14:54:32;100804.88;;;23.68
45034;BMP280;30771;47.988;-4.186;2022-08-18T14:56:58;100809.47;;;23.67
45034;BMP280;30771;47.988;-4.186;2022-08-18T14:59:23;100799.22;;;23.93
45034;BMP280;30771;47.988;-4.186;2022-08-18T15:01:49;100797.44;;;24.26
45034;BMP280;30771;47.988;-4.186;2022-08-18T15:04:14;100799.97;;;24.41
45034;BMP280;30771;47.988;-4.186;2022-08-18T15:06:39;100808.34;;;24.58
45034;BMP280;30771;47.988;-4.186;2022-08-18T15:09:04;100814.41;;;24.26
45034;BMP280;30771;47.988;-4.186;2022-08-18T15:11:30;100804.97;;;24.10
45034;BMP280;30771;47.988;-4.186;2022-08-18T15:13:55;100809.22;;;24.11
45034;BMP280;30771;47.988;-4.186;2022-08-18T15:16:20;100811.31;;;23.96
45034;BMP280;30771;47.988;-4.186;2022-08-18T15:18:46;100810.75;;;23.70
45034;BMP280;30771;47.988;-4.186;2022-08-18T15:21:14;100808.00;;;23.51
45034;BMP280;30771;47.988;-4.186;2022-08-18T15:23:40;100802.09;;;23.21
45034;BMP280;30771;47.988;-4.186;2022-08-18T15:26:05;100803.00;;;23.06
45034;BMP280;30771;47.988;-4.186;2022-08-18T15:28:30;100809.25;;;22.97
45034;BMP280;30771;47.988;-4.186;2022-08-18T15:30:55;100788.97;;;22.81
45034;BMP280;30771;47.988;-4.186;2022-08-18T15:33:20;100790.06;;;22.75
45034;BMP280;30771;47.988;-4.186;2022-08-18T15:35:46;100787.78;;;22.48
45034;BMP280;30771;47.988;-4.186;2022-08-18T15:38:11;100777.44;;;22.32
45034;BMP280;30771;47.988;-4.186;2022-08-18T15:40:36;100769.94;;;22.24
45034;BMP280;30771;47.988;-4.186;2022-08-18T15:43:04;100773.75;;;22.13
45034;BMP280;30771;47.988;-4.186;2022-08-18T15:45:31;100774.81;;;22.07
45034;BMP280;30771;47.988;-4.186;2022-08-18T15:47:58;100772.94;;;22.12
45034;BMP280;30771;47.988;-4.186;2022-08-18T15:50:23;100771.81;;;22.23
45034;BMP280;30771;47.988;-4.186;2022-08-18T15:52:49;100774.22;;;22.30
45034;BMP280;30771;47.988;-4.186;2022-08-18T15:55:16;100776.06;;;22.29
45034;BMP280;30771;47.988;-4.186;2022-08-18T15:57:41;100780.06;;;22.37
45034;BMP280;30771;47.988;-4.186;2022-08-18T16:00:06;100774.69;;;22.42
45034;BMP280;30771;47.988;-4.186;2022-08-18T16:02:32;100775.78;;;22.36
45034;BMP280;30771;47.988;-4.186;2022-08-18T16:04:57;100769.34;;;22.37
45034;BMP280;30771;47.988;-4.186;2022-08-18T16:07:22;100764.03;;;22.22
45034;BMP280;30771;47.988;-4.186;2022-08-18T16:09:47;100764.63;;;22.09
45034;BMP280;30771;47.988;-4.186;2022-08-18T16:12:12;100767.84;;;22.06
45034;BMP280;30771;47.988;-4.186;2022-08-18T16:14:38;100764.13;;;21.97
45034;BMP280;30771;47.988;-4.186;2022-08-18T16:17:03;100764.16;;;21.82
45034;BMP280;30771;47.988;-4.186;2022-08-18T16:19:28;100764.16;;;21.77
45034;BMP280;30771;47.988;-4.186;2022-08-18T16:21:54;100765.81;;;21.62
45034;BMP280;30771;47.988;-4.186;2022-08-18T16:24:19;100765.28;;;21.60
45034;BMP280;30771;47.988;-4.186;2022-08-18T16:26:44;100763.69;;;21.54
45034;BMP280;30771;47.988;-4.186;2022-08-18T16:29:09;100759.94;;;21.45
45034;BMP280;30771;47.988;-4.186;2022-08-18T16:31:35;100759.16;;;21.35
45034;BMP280;30771;47.988;-4.186;2022-08-18T16:34:00;100762.63;;;21.40
45034;BMP280;30771;47.988;-4.186;2022-08-18T16:36:25;100766.94;;;21.41
45034;BMP280;30771;47.988;-4.186;2022-08-18T16:38:50;100768.78;;;21.36
45034;BMP280;30771;47.988;-4.186;2022-08-18T16:41:15;100767.47;;;21.23
45034;BMP280;30771;47.988;-4.186;2022-08-18T16:43:41;100770.41;;;21.22
45034;BMP280;30771;47.988;-4.186;2022-08-18T16:46:11;100768.53;;;21.17
45034;BMP280;30771;47.988;-4.186;2022-08-18T16:48:37;100770.13;;;21.18
45034;BMP280;30771;47.988;-4.186;2022-08-18T16:51:02;100769.84;;;21.25
45034;BMP280;30771;47.988;-4.186;2022-08-18T16:53:27;100781.13;;;21.32
45034;BMP280;30771;47.988;-4.186;2022-08-18T16:55:53;100784.59;;;21.27
45034;BMP280;30771;47.988;-4.186;2022-08-18T16:58:18;100774.69;;;21.23
45034;BMP280;30771;47.988;-4.186;2022-08-18T17:00:44;100765.84;;;21.12
45034;BMP280;30771;47.988;-4.186;2022-08-18T17:03:10;100770.13;;;21.03
45034;BMP280;30771;47.988;-4.186;2022-08-18T17:05:35;100763.16;;;20.97
45034;BMP280;30771;47.988;-4.186;2022-08-18T17:08:00;100762.34;;;20.87
45034;BMP280;30771;47.988;-4.186;2022-08-18T17:10:25;100756.72;;;20.78
45034;BMP280;30771;47.988;-4.186;2022-08-18T17:12:50;100762.56;;;20.75
45034;BMP280;30771;47.988;-4.186;2022-08-18T17:15:16;100762.03;;;20.68
45034;BMP280;30771;47.988;-4.186;2022-08-18T17:17:41;100759.59;;;20.72
45034;BMP280;30771;47.988;-4.186;2022-08-18T17:20:06;100760.44;;;20.77
45034;BMP280;30771;47.988;-4.186;2022-08-18T17:22:31;100774.09;;;20.71
45034;BMP280;30771;47.988;-4.186;2022-08-18T17:24:57;100758.78;;;20.61
45034;BMP280;30771;47.988;-4.186;2022-08-18T17:27:27;100762.50;;;20.55
45034;BMP280;30771;47.988;-4.186;2022-08-18T17:35:10;100756.09;;;20.46
45034;BMP280;30771;47.988;-4.186;2022-08-18T17:37:36;100748.81;;;20.42
45034;BMP280;30771;47.988;-4.186;2022-08-18T17:40:14;100752.06;;;20.44
45034;BMP280;30771;47.988;-4.186;2022-08-18T17:42:41;100747.47;;;20.44
45034;BMP280;30771;47.988;-4.186;2022-08-18T17:45:07;100752.31;;;20.47
45034;BMP280;30771;47.988;-4.186;2022-08-18T17:47:35;100751.25;;;20.48
45034;BMP280;30771;47.988;-4.186;2022-08-18T17:50:03;100751.78;;;20.45
45034;BMP280;30771;47.988;-4.186;2022-08-18T17:52:36;100753.09;;;20.38
45034;BMP280;30771;47.988;-4.186;2022-08-18T17:55:12;100744.78;;;20.34
45034;BMP280;30771;47.988;-4.186;2022-08-18T17:57:41;100746.91;;;20.32
45034;BMP280;30771;47.988;-4.186;2022-08-18T18:00:09;100740.22;;;20.30
45034;BMP280;30771;47.988;-4.186;2022-08-18T18:02:35;100744.78;;;20.29
45034;BMP280;30771;47.988;-4.186;2022-08-18T18:05:02;100737.81;;;20.28
45034;BMP280;30771;47.988;-4.186;2022-08-18T18:07:35;100736.72;;;20.24
45034;BMP280;30771;47.988;-4.186;2022-08-18T18:10:06;100728.38;;;20.16
45034;BMP280;30771;47.988;-4.186;2022-08-18T18:12:33;100736.94;;;20.13
45034;BMP280;30771;47.988;-4.186;2022-08-18T18:14:58;100728.91;;;20.13
45034;BMP280;30771;47.988;-4.186;2022-08-18T18:17:25;100734.78;;;20.10
45034;BMP280;30771;47.988;-4.186;2022-08-18T18:19:56;100723.78;;;20.06
45034;BMP280;30771;47.988;-4.186;2022-08-18T18:22:23;100724.84;;;20.05
45034;BMP280;30771;47.988;-4.186;2022-08-18T18:24:56;100735.53;;;20.05
45034;BMP280;30771;47.988;-4.186;2022-08-18T18:30:06;100722.91;;;19.90
45034;BMP280;30771;47.988;-4.186;2022-08-18T18:35:18;100715.66;;;19.86
45034;BMP280;30771;47.988;-4.186;2022-08-18T18:37:45;100724.22;;;19.83
45034;BMP280;30771;47.988;-4.186;2022-08-18T18:40:57;100728.47;;;19.84
45034;BMP280;30771;47.988;-4.186;2022-08-18T18:42:57;100722.63;;;19.82
45034;BMP280;30771;47.988;-4.186;2022-08-18T18:45:40;100727.41;;;19.80
45034;BMP280;30771;47.988;-4.186;2022-08-18T18:48:08;100722.06;;;19.80
45034;BMP280;30771;47.988;-4.186;2022-08-18T18:53:23;100717.22;;;19.77
45034;BMP280;30771;47.988;-4.186;2022-08-18T18:58:32;100718.84;;;19.78
45034;BMP280;30771;47.988;-4.186;2022-08-18T19:01:01;100713.47;;;19.73
45034;BMP280;30771;47.988;-4.186;2022-08-18T19:13:42;100703.22;;;19.60
45034;BMP280;30771;47.988;-4.186;2022-08-18T19:16:11;100713.66;;;19.61
45034;BMP280;30771;47.988;-4.186;2022-08-18T19:18:38;100717.94;;;19.62
45034;BMP280;30771;47.988;-4.186;2022-08-18T19:21:07;100721.41;;;19.63
45034;BMP280;30771;47.988;-4.186;2022-08-18T19:24:17;100719.81;;;19.62
45034;BMP280;30771;47.988;-4.186;2022-08-18T19:26:25;100721.13;;;19.59
45034;BMP280;30771;47.988;-4.186;2022-08-18T19:28:52;100722.44;;;19.57
45034;BMP280;30771;47.988;-4.186;2022-08-18T19:31:28;100715.72;;;19.54
45034;BMP280;30771;47.988;-4.186;2022-08-18T19:33:56;100719.50;;;19.53
45034;BMP280;30771;47.988;-4.186;2022-08-18T19:36:33;100728.03;;;19.55
45034;BMP280;30771;47.988;-4.186;2022-08-18T19:41:45;100732.28;;;19.51
45034;BMP280;30771;47.988;-4.186;2022-08-18T19:52:37;100734.16;;;19.51
45034;BMP280;30771;47.988;-4.186;2022-08-18T19:55:29;100736.03;;;19.50
45034;BMP280;30771;47.988;-4.186;2022-08-18T20:00:40;100737.56;;;19.46
45034;BMP280;30771;47.988;-4.186;2022-08-18T20:13:32;100749.06;;;19.47
45034;BMP280;30771;47.988;-4.186;2022-08-18T20:18:33;100761.88;;;19.45
45034;BMP280;30771;47.988;-4.186;2022-08-18T20:29:00;100751.38;;;19.33
45034;BMP280;30771;47.988;-4.186;2022-08-18T20:31:26;100754.28;;;19.32
45034;BMP280;30771;47.988;-4.186;2022-08-18T20:34:08;100744.13;;;19.29
45034;BMP280;30771;47.988;-4.186;2022-08-18T20:36:34;100752.41;;;19.27
45034;BMP280;30771;47.988;-4.186;2022-08-18T20:39:00;100752.88;;;19.24
45034;BMP280;30771;47.988;-4.186;2022-08-18T20:41:46;100760.88;;;19.24
45034;BMP280;30771;47.988;-4.186;2022-08-18T20:47:01;100753.41;;;19.21
45034;BMP280;30771;47.988;-4.186;2022-08-18T20:55:04;100754.47;;;19.20
45034;BMP280;30771;47.988;-4.186;2022-08-18T20:57:34;100750.97;;;19.20
45034;BMP280;30771;47.988;-4.186;2022-08-18T21:02:35;100763.53;;;19.19
45034;BMP280;30771;47.988;-4.186;2022-08-18T21:05:01;100756.84;;;19.17
45034;BMP280;30771;47.988;-4.186;2022-08-18T21:07:30;100763.75;;;19.13
45034;BMP280;30771;47.988;-4.186;2022-08-18T21:10:00;100759.97;;;19.09
45034;BMP280;30771;47.988;-4.186;2022-08-18T21:12:28;100759.66;;;19.05
45034;BMP280;30771;47.988;-4.186;2022-08-18T21:14:54;100772.44;;;19.03
45034;BMP280;30771;47.988;-4.186;2022-08-18T21:17:19;100776.69;;;18.99
45034;BMP280;30771;47.988;-4.186;2022-08-18T21:19:47;100766.25;;;18.98
45034;BMP280;30771;47.988;-4.186;2022-08-18T21:22:12;100764.38;;;18.98
45034;BMP280;30771;47.988;-4.186;2022-08-18T21:24:39;100772.91;;;18.95
45034;BMP280;30771;47.988;-4.186;2022-08-18T21:27:16;100776.38;;;18.96
45034;BMP280;30771;47.988;-4.186;2022-08-18T21:29:42;100773.16;;;18.94
45034;BMP280;30771;47.988;-4.186;2022-08-18T21:32:10;100770.47;;;18.94
45034;BMP280;30771;47.988;-4.186;2022-08-18T21:34:37;100767.81;;;18.94
45034;BMP280;30771;47.988;-4.186;2022-08-18T21:37:03;100767.81;;;18.94
45034;BMP280;30771;47.988;-4.186;2022-08-18T21:39:29;100765.97;;;18.94
45034;BMP280;30771;47.988;-4.186;2022-08-18T21:41:55;100766.19;;;18.93
45034;BMP280;30771;47.988;-4.186;2022-08-18T21:46:49;100770.72;;;18.92
45034;BMP280;30771;47.988;-4.186;2022-08-18T21:49:24;100771.00;;;18.91
45034;BMP280;30771;47.988;-4.186;2022-08-18T21:51:50;100773.41;;;18.92
45034;BMP280;30771;47.988;-4.186;2022-08-18T21:54:21;100773.16;;;18.94
45034;BMP280;30771;47.988;-4.186;2022-08-18T21:56:47;100777.47;;;18.95
45034;BMP280;30771;47.988;-4.186;2022-08-18T21:59:14;100774.53;;;18.96
